Spearfish, SD

11:39 AM MDT on April 25, 2017 (GMT -0600)
TMWC | | Change Station
Active Advisory: Winter Weather Advisory

Elev 3685 ft 44.49 °N, 103.87 °W | Updated 9 seconds ago

Snow
Snow
32.7 °F
Feels Like 27 °F
N
5.8
Wind Variable Wind from NE
Gusts 5.8 mph

Today
High -- | Low -- °F
--% Chance of Precip.
Yesterday
High -- | Low -- °F
Precip. -- in
Pressure 29.77 in
Visibility 1.2 miles
Clouds
Windchill 27 °F
Dew Point 25 °F
Humidity 73%
Rainfall 0.33 in
Snow Depth Not available.
5:54 AM 7:52 PM
Waning Crescent, 1% visible
METAR KSPF 251715Z AUTO 06012KT 1 1/4SM -SN VV007 M03/M03 A2977 RMK AO2
Pressure 29.77 in
Visibility 1.2 miles
Clouds
Windchill 27 °F
Dew Point 25 °F
Humidity 73%
Rainfall 0.33 in
Snow Depth Not available.
5:54 AM 7:52 PM
Waning Crescent, 1% visible
METAR KSPF 251715Z AUTO 06012KT 1 1/4SM -SN VV007 M03/M03 A2977 RMK AO2

Get Your Daily Forecast Email!

Thanks for signing up!

Be on the lookout for a verification email in your inbox.

You'll start receiving severe weather alerts in your inbox..

×

10-Day Weather Forecast

Almanac

Astronomy

Apr. 25, 2017 Rise Set
Actual Time
Civil Twilight
Nautical Twilight
Astronomical Twilight
Moon
Length of Visible Light
Length of Day
Tomorrow will be .
, % of the Moon is Illuminated

Today's Extremes

State Highs State Lows

Community

WunderPhotos

WunderBlog® & News

Nearby

Air Quality

  Air Quality AQ Index Pollutant
Not available.

Snow Depth

Station Depth Elevation

Earthquake Activity

City Distance Mag. Time & Date
Minimum magnitude displayed is 2.5.

Coastal Water Temperatures

Place Temperature

Stations

Nearby Weather Stations

Station Location Temp. Windchill Dew Point Humidity Wind Precip. Elev Updated Type
                   

Watches & Warnings

Winter Weather Advisory
Issued: 9:36 AM MDT Apr. 25, 2017 – National Weather Service

... Winter Weather Advisory remains in effect until 3 PM MDT this
afternoon...

* timing... snow will continue through the midday hours, tapering
off during the afternoon.

* Main impact... snowfall totals of 2 to 6 inches are expected,
with the higher amounts generally over the Spearfish and Belle
Fourche areas.

* Other impacts... with many trees beginning to Leaf out, the
heavy wet snow could bring down some tree limbs.

Precautionary/preparedness actions...

A Winter Weather Advisory for snow means snow accumulation will
create hazardous conditions. Use caution when traveling.